createdAt,value
2022-11-08T00:01:32.306Z,86.86
2022-11-08T00:06:54.411Z,86.49
2022-11-08T00:12:15.100Z,85.95
2022-11-08T00:17:18.043Z,85.84
2022-11-08T00:22:20.128Z,86.55
2022-11-08T00:27:23.295Z,86.97
2022-11-08T00:32:26.518Z,86.84
2022-11-08T00:37:28.185Z,87.44
2022-11-08T00:42:29.906Z,87.49
2022-11-08T00:47:31.560Z,87.56
2022-11-08T00:52:33.241Z,88.19
2022-11-08T00:57:54.103Z,87.93
2022-11-08T01:03:15.004Z,88.08
2022-11-08T01:08:18.061Z,87.19
2022-11-08T01:13:20.561Z,86.56
2022-11-08T01:18:22.370Z,85.73
2022-11-08T01:23:24.051Z,85.81
2022-11-08T01:28:25.709Z,85.72
2022-11-08T01:33:27.466Z,86.06
2022-11-08T01:38:29.140Z,87.66
2022-11-08T01:43:30.751Z,89.20
2022-11-08T01:48:32.462Z,89.77
2022-11-08T01:53:34.607Z,89.80
2022-11-08T01:58:38.507Z,91.13
2022-11-08T02:03:41.614Z,91.69
2022-11-08T02:08:44.816Z,92.77
2022-11-08T02:13:46.559Z,94.98
2022-11-08T02:18:49.530Z,96.59
2022-11-08T02:24:06.903Z,97.52
2022-11-08T02:29:27.671Z,99.10
2022-11-08T02:34:38.433Z,99.85
2022-11-08T02:39:40.127Z,100.00
2022-11-08T02:44:41.835Z,99.01
2022-11-08T02:49:43.630Z,96.18
2022-11-08T02:54:45.404Z,93.25
2022-11-08T02:59:48.749Z,92.45
2022-11-08T03:04:50.395Z,91.15
2022-11-08T03:09:52.125Z,90.53
2022-11-08T03:14:53.805Z,89.83
2022-11-08T03:19:56.221Z,90.20
2022-11-08T03:24:57.887Z,89.54
2022-11-08T03:29:59.544Z,89.46
2022-11-08T03:35:01.207Z,89.45
2022-11-08T03:40:02.987Z,89.31
2022-11-08T03:45:04.884Z,90.25
2022-11-08T03:50:08.243Z,91.78
2022-11-08T03:55:10.963Z,93.17
2022-11-08T04:00:14.343Z,91.17
2022-11-08T04:05:16.593Z,88.91
2022-11-08T04:10:18.525Z,88.77
2022-11-08T04:15:22.832Z,90.72
2022-11-08T04:20:42.843Z,93.28
2022-11-08T04:25:45.376Z,96.93
2022-11-08T04:30:52.721Z,99.41
2022-11-08T04:35:54.436Z,100.00
2022-11-08T04:41:04.326Z,100.00
2022-11-08T04:46:09.232Z,100.00
2022-11-08T04:51:28.621Z,100.00
2022-11-08T04:56:31.356Z,100.00
2022-11-08T05:01:33.221Z,100.00
2022-11-08T05:06:35.002Z,100.00
2022-11-08T05:11:37.203Z,100.00
2022-11-08T05:16:38.896Z,100.00
2022-11-08T05:21:59.211Z,100.00
2022-11-08T05:27:00.882Z,100.00
2022-11-08T05:32:02.572Z,100.00
2022-11-08T05:37:04.343Z,100.00
2022-11-08T05:42:06.118Z,100.00
2022-11-08T05:47:08.134Z,100.00
2022-11-08T05:52:09.825Z,100.00
2022-11-08T05:57:12.488Z,100.00
2022-11-08T06:02:14.307Z,100.00
2022-11-08T06:07:16.184Z,100.00
2022-11-08T06:12:18.091Z,100.00
2022-11-08T06:17:19.750Z,100.00
2022-11-08T06:22:21.824Z,100.00
2022-11-08T06:27:23.805Z,100.00
2022-11-08T06:32:25.489Z,100.00
2022-11-08T06:37:27.195Z,100.00
2022-11-08T06:42:28.978Z,100.00
2022-11-08T06:47:30.636Z,100.00
2022-11-08T06:52:32.491Z,100.00
2022-11-08T06:57:34.312Z,100.00
2022-11-08T07:02:36.272Z,100.00
2022-11-08T07:07:38.454Z,100.00
2022-11-08T07:12:40.265Z,100.00
2022-11-08T07:17:42.091Z,100.00
2022-11-08T07:22:43.791Z,100.00
2022-11-08T07:27:45.482Z,100.00
2022-11-08T07:32:47.216Z,100.00
2022-11-08T07:37:49.011Z,100.00
2022-11-08T07:43:11.401Z,100.00
2022-11-08T07:48:13.986Z,100.00
2022-11-08T07:53:16.141Z,100.00
2022-11-08T07:58:18.027Z,100.00
2022-11-08T08:03:20.076Z,100.00
2022-11-08T08:08:22.648Z,95.09
2022-11-08T08:13:24.316Z,92.24
2022-11-08T08:18:26.169Z,86.94
2022-11-08T08:23:28.976Z,89.75
2022-11-08T08:28:30.713Z,92.22
2022-11-08T08:33:33.311Z,92.79
2022-11-08T08:38:38.688Z,91.58
2022-11-08T08:43:43.230Z,88.25
2022-11-08T08:48:44.887Z,86.76
2022-11-08T08:53:46.547Z,85.95
2022-11-08T09:04:12.790Z,76.19
2022-11-08T09:09:14.460Z,70.03
2022-11-08T09:14:16.133Z,69.48
2022-11-08T09:19:17.838Z,66.51
2022-11-08T09:24:20.138Z,67.24
2022-11-08T09:29:21.867Z,67.19
2022-11-08T09:34:23.656Z,66.88
2022-11-08T09:39:25.456Z,64.98
2022-11-08T09:44:39.086Z,61.19
2022-11-08T09:49:45.881Z,59.74
2022-11-08T09:54:48.683Z,61.65
2022-11-08T09:59:56.549Z,59.17
2022-11-08T10:05:09.474Z,64.96
2022-11-08T10:10:17.035Z,60.40
2022-11-08T10:15:30.254Z,63.32
2022-11-08T10:21:00.619Z,62.86
2022-11-08T10:26:24.151Z,59.66
2022-11-08T10:31:33.146Z,56.82
2022-11-08T10:36:38.852Z,54.65
2022-11-08T10:41:44.725Z,52.03
2022-11-08T10:46:57.532Z,52.40
2022-11-08T10:52:01.379Z,55.19
2022-11-08T10:57:03.147Z,54.52
2022-11-08T11:02:18.918Z,54.80
2022-11-08T11:07:33.220Z,53.25
2022-11-08T11:12:34.879Z,55.90
2022-11-08T11:17:39.086Z,56.49
2022-11-08T11:22:46.665Z,54.18
2022-11-08T11:27:58.440Z,52.71
2022-11-08T11:33:09.406Z,53.18
2022-11-08T11:38:23.702Z,58.53
2022-11-08T11:43:35.948Z,58.46
2022-11-08T11:48:45.844Z,57.30
2022-11-08T11:53:48.967Z,56.22
2022-11-08T11:59:12.655Z,53.69
2022-11-08T12:04:24.359Z,55.01
2022-11-08T12:09:57.730Z,54.86
2022-11-08T12:15:17.307Z,54.64
2022-11-08T12:20:38.668Z,54.68
2022-11-08T12:26:15.445Z,56.41
2022-11-08T12:31:38.883Z,55.29
2022-11-08T12:37:11.735Z,54.74
2022-11-08T12:42:50.789Z,55.91
2022-11-08T12:48:12.205Z,57.91
2022-11-08T12:53:49.048Z,57.34
2022-11-08T12:58:53.542Z,56.36
2022-11-08T13:04:05.796Z,56.47
2022-11-08T13:09:23.399Z,56.83
2022-11-08T13:14:26.126Z,56.17
2022-11-08T13:19:29.751Z,58.76
2022-11-08T13:24:49.814Z,58.14
2022-11-08T13:29:53.319Z,58.03
2022-11-08T13:35:36.382Z,57.06
2022-11-08T13:40:59.664Z,57.88
2022-11-08T13:46:27.001Z,57.96
2022-11-08T13:51:31.144Z,59.63
2022-11-08T13:56:42.300Z,62.43
2022-11-08T14:01:46.784Z,63.71
2022-11-08T14:07:03.469Z,64.17
2022-11-08T14:12:22.853Z,62.79
2022-11-08T14:17:58.481Z,61.32
2022-11-08T14:23:14.728Z,62.00
2022-11-08T14:28:27.776Z,63.20
2022-11-08T14:33:31.657Z,61.58
2022-11-08T14:38:37.920Z,63.13
2022-11-08T14:43:45.363Z,64.47
2022-11-08T14:48:54.777Z,65.68
2022-11-08T14:53:56.760Z,66.89
2022-11-08T14:58:58.479Z,66.97
2022-11-08T15:04:19.156Z,68.06
2022-11-08T15:09:25.961Z,69.66
2022-11-08T15:14:30.933Z,70.59
2022-11-08T15:19:46.483Z,72.53
2022-11-08T15:24:48.586Z,71.46
2022-11-08T15:29:53.923Z,71.85
2022-11-08T15:34:56.898Z,72.92
2022-11-08T15:40:02.919Z,72.55
2022-11-08T15:45:13.700Z,73.07
2022-11-08T15:50:22.699Z,73.04
2022-11-08T15:55:29.645Z,72.38
2022-11-08T16:00:34.983Z,73.82
2022-11-08T16:05:36.817Z,74.35
2022-11-08T16:10:42.510Z,76.67
2022-11-08T16:15:45.752Z,77.86
2022-11-08T16:20:47.625Z,79.65
2022-11-08T16:25:51.306Z,79.55
2022-11-08T16:30:53.746Z,80.41
2022-11-08T16:35:58.608Z,82.25
2022-11-08T16:41:00.279Z,83.17
2022-11-08T16:46:07.128Z,83.98
2022-11-08T16:51:16.751Z,85.18
2022-11-08T16:56:18.473Z,85.89
2022-11-08T17:01:33.307Z,85.74
2022-11-08T17:06:35.098Z,86.61
2022-11-08T17:11:38.634Z,87.14
2022-11-08T17:16:40.332Z,87.14
2022-11-08T17:21:45.040Z,87.59
2022-11-08T17:26:47.605Z,88.67
2022-11-08T17:31:49.833Z,90.02
2022-11-08T17:36:52.904Z,90.44
2022-11-08T17:41:54.625Z,91.03
2022-11-08T17:46:56.447Z,90.84
2022-11-08T17:51:58.262Z,89.97
2022-11-08T17:57:00.072Z,90.32
2022-11-08T18:02:02.020Z,87.99
2022-11-08T18:07:04.157Z,84.76
2022-11-08T18:12:06.216Z,84.91
2022-11-08T18:17:08.277Z,84.13
2022-11-08T18:22:10.781Z,81.84
2022-11-08T18:27:12.569Z,80.01
2022-11-08T18:32:14.330Z,78.61
2022-11-08T18:37:16.112Z,78.88
2022-11-08T18:42:17.796Z,76.28
2022-11-08T18:47:19.912Z,80.08
2022-11-08T18:52:21.721Z,81.83
2022-11-08T18:57:23.415Z,84.65
2022-11-08T19:02:25.216Z,85.51
2022-11-08T19:07:27.653Z,86.07
2022-11-08T19:12:29.914Z,87.27
2022-11-08T19:17:32.967Z,86.79
2022-11-08T19:22:34.659Z,88.26
2022-11-08T19:27:36.379Z,89.23
2022-11-08T19:32:38.124Z,87.85
2022-11-08T19:37:39.986Z,89.61
2022-11-08T19:42:41.707Z,89.86
2022-11-08T19:47:43.452Z,91.63
2022-11-08T19:52:45.190Z,92.36
2022-11-08T19:57:47.519Z,91.77
2022-11-08T20:02:50.940Z,91.69
2022-11-08T20:07:52.600Z,92.56
2022-11-08T20:12:54.320Z,92.18
2022-11-08T20:17:55.988Z,93.98
2022-11-08T20:22:57.753Z,93.34
2022-11-08T20:27:59.520Z,93.64
2022-11-08T20:33:01.255Z,93.25
2022-11-08T20:38:02.916Z,95.78
2022-11-08T20:43:04.616Z,94.51
2022-11-08T20:48:06.771Z,94.71
2022-11-08T20:53:08.617Z,96.80
2022-11-08T20:58:10.325Z,97.83
2022-11-08T21:03:18.701Z,97.33
2022-11-08T21:08:58.545Z,97.82
2022-11-08T21:13:44.173Z,99.11
2022-11-08T21:18:45.888Z,99.31
2022-11-08T21:23:48.269Z,100.00
2022-11-08T21:28:50.003Z,99.58
2022-11-08T21:33:52.421Z,99.30
2022-11-08T21:38:54.269Z,99.68
2022-11-08T21:43:55.918Z,99.17
2022-11-08T21:49:00.191Z,100.00
2022-11-08T21:54:01.848Z,100.00
2022-11-08T21:59:03.863Z,100.00
2022-11-08T22:04:05.523Z,100.00
2022-11-08T22:09:07.175Z,100.00
2022-11-08T22:14:08.852Z,100.00
2022-11-08T22:19:10.762Z,100.00
2022-11-08T22:24:15.021Z,100.00
2022-11-08T22:29:17.309Z,100.00
2022-11-08T22:34:19.042Z,100.00
2022-11-08T22:39:22.827Z,100.00
2022-11-08T22:44:24.678Z,100.00
2022-11-08T22:49:26.340Z,100.00
2022-11-08T22:54:28.049Z,100.00
2022-11-08T22:59:29.749Z,100.00
2022-11-08T23:04:31.443Z,100.00
2022-11-08T23:09:33.205Z,100.00
2022-11-08T23:14:53.579Z,100.00
2022-11-08T23:20:13.687Z,100.00
2022-11-08T23:25:15.460Z,100.00
2022-11-08T23:30:36.581Z,100.00
2022-11-08T23:35:38.317Z,100.00
2022-11-08T23:40:58.595Z,100.00
2022-11-08T23:46:08.592Z,100.00
2022-11-08T23:51:10.326Z,100.00
2022-11-08T23:56:20.168Z,100.00
